Terminal Aerodrome Forecast
Issued by NWS

Home | Current Version | Previous Version | Text Only | Print | Product List | Glossary On
Versions: 1 2 3 4 5 6 7 8 9 10 11 12 13 14 15 16 17 18
848
FTUS46 KMTR 171133
TAFSNS
TAF
KSNS 171133Z 1712/1812 12005KT 1/4SM FG VV002
     FM171800 12006KT P6SM BKN020
     FM172000 29006KT P6SM SCT030 BKN200
     FM180300 29004KT P6SM BKN012
     FM180700 VRB03KT 5SM BR OVC009=

USA.gov is the U.S. government's official web portal to all federal, state and local government web resources and services.